Time;durP1;ratioP1;P1;durP2;ratioP2;P2;SDS_P1;SDS_P2;PMS_P1;PMS_P2;Temp;Humidity;BMP_temperature;BMP_pressure;BME280_temperature;BME280_humidity;BME280_pressure;Samples;Min_cycle;Max_cycle;Signal;HPM_P1;HPM_P2
2022/08/31 00:05:32;;;;;;;8.23;7.60;;;;;;;;;;5016556;28;20395;-66
2022/08/31 00:07:58;;;;;;;8.97;8.27;;;;;;;;;;5016407;28;20770;-65
2022/08/31 00:10:27;;;;;;;14.17;8.97;;;;;;;;;;5016410;28;20528;-66
2022/08/31 00:12:53;;;;;;;11.63;9.13;;;;;;;;;;5016468;28;20497;-66
2022/08/31 00:15:20;;;;;;;10.00;9.10;;;;;;;;;;5016386;28;20404;-66
2022/08/31 00:17:46;;;;;;;9.53;8.63;;;;;;;;;;5016191;28;20467;-66
2022/08/31 00:20:14;;;;;;;9.47;8.73;;;;;;;;;;5015959;28;20424;-66
2022/08/31 00:22:40;;;;;;;10.30;9.40;;;;;;;;;;5016177;28;20412;-66
2022/08/31 00:25:06;;;;;;;13.80;9.73;;;;;;;;;;5016143;28;20764;-66
2022/08/31 00:27:32;;;;;;;10.70;9.30;;;;;;;;;;5016097;28;20436;-66
2022/08/31 00:29:58;;;;;;;11.23;10.30;;;;;;;;;;5016074;28;20463;-66
2022/08/31 00:32:24;;;;;;;10.00;9.20;;;;;;;;;;5016086;28;20820;-65
2022/08/31 00:34:51;;;;;;;13.60;9.73;;;;;;;;;;5015953;28;20463;-65
2022/08/31 00:37:17;;;;;;;14.83;9.40;;;;;;;;;;5015822;28;20560;-66
2022/08/31 00:39:43;;;;;;;19.53;10.20;;;;;;;;;;5015903;28;20404;-66
2022/08/31 00:42:11;;;;;;;14.63;10.30;;;;;;;;;;5015905;28;20400;-66
2022/08/31 00:44:37;;;;;;;11.83;10.80;;;;;;;;;;5015801;28;20389;-66
2022/08/31 00:47:03;;;;;;;10.97;9.97;;;;;;;;;;5015720;28;20550;-66
2022/08/31 00:49:34;;;;;;;13.20;9.53;;;;;;;;;;5015682;28;20436;-66
2022/08/31 00:52:08;;;;;;;13.77;10.00;;;;;;;;;;5015511;28;20498;-66
2022/08/31 00:55:07;;;;;;;10.37;9.53;;;;;;;;;;5015662;28;20424;-66
2022/08/31 00:57:34;;;;;;;11.33;9.67;;;;;;;;;;5025010;28;20491;-66
2022/08/31 01:00:03;;;;;;;9.83;9.20;;;;;;;;;;5015528;28;20483;-66
2022/08/31 01:02:29;;;;;;;12.43;9.67;;;;;;;;;;5015751;28;20399;-66
2022/08/31 01:04:55;;;;;;;10.03;9.20;;;;;;;;;;5015398;28;20462;-67
2022/08/31 01:07:22;;;;;;;10.23;9.23;;;;;;;;;;5015357;28;20453;-66
2022/08/31 01:09:48;;;;;;;11.57;10.57;;;;;;;;;;5015560;28;20818;-66
2022/08/31 01:12:14;;;;;;;10.80;9.80;;;;;;;;;;5015358;28;20432;-66
2022/08/31 01:14:40;;;;;;;18.23;9.67;;;;;;;;;;5015204;28;20405;-66
2022/08/31 01:17:06;;;;;;;11.70;10.60;;;;;;;;;;5015104;28;20555;-66
2022/08/31 01:19:35;;;;;;;14.27;10.97;;;;;;;;;;5015140;28;20484;-66
2022/08/31 01:22:21;;;;;;;11.77;10.77;;;;;;;;;;5015112;28;20761;-66
2022/08/31 01:24:47;;;;;;;12.97;10.97;;;;;;;;;;5015050;28;20387;-66
2022/08/31 01:27:16;;;;;;;12.23;10.93;;;;;;;;;;5015037;28;20530;-66
2022/08/31 01:29:42;;;;;;;11.07;10.00;;;;;;;;;;5015020;28;20408;-66
2022/08/31 01:32:08;;;;;;;13.33;10.53;;;;;;;;;;5014301;28;20403;-66
2022/08/31 01:34:34;;;;;;;10.47;9.63;;;;;;;;;;5014849;28;20397;-66
2022/08/31 01:37:00;;;;;;;11.10;8.93;;;;;;;;;;5014684;28;20506;-66
2022/08/31 01:39:26;;;;;;;10.50;9.70;;;;;;;;;;5014819;28;20397;-66
2022/08/31 01:41:52;;;;;;;11.20;10.10;;;;;;;;;;5014696;28;20415;-66
2022/08/31 01:44:20;;;;;;;11.90;9.40;;;;;;;;;;5014784;28;20397;-66
2022/08/31 01:46:47;;;;;;;14.17;8.60;;;;;;;;;;5014613;28;20423;-66
2022/08/31 01:49:14;;;;;;;9.73;8.93;;;;;;;;;;5014635;28;20432;-66
2022/08/31 01:51:40;;;;;;;9.80;9.00;;;;;;;;;;5014411;28;20518;-66
2022/08/31 01:54:06;;;;;;;9.50;8.70;;;;;;;;;;5014548;28;20488;-66
2022/08/31 01:56:38;;;;;;;9.50;8.63;;;;;;;;;;5014453;28;20468;-66
2022/08/31 01:59:04;;;;;;;12.97;9.67;;;;;;;;;;5014459;28;20408;-66
2022/08/31 02:01:32;;;;;;;9.90;9.00;;;;;;;;;;5014416;28;20446;-66
2022/08/31 02:03:58;;;;;;;9.57;8.67;;;;;;;;;;5014339;28;20394;-66
2022/08/31 02:06:24;;;;;;;9.80;8.80;;;;;;;;;;5014253;28;20502;-66
2022/08/31 02:08:50;;;;;;;10.77;8.43;;;;;;;;;;5014316;28;20404;-65
2022/08/31 02:11:16;;;;;;;9.47;8.77;;;;;;;;;;5014236;28;20464;-66
2022/08/31 02:13:42;;;;;;;9.20;8.60;;;;;;;;;;5014238;28;20899;-66
2022/08/31 02:16:08;;;;;;;9.77;8.97;;;;;;;;;;5014135;28;20468;-66
2022/08/31 02:18:35;;;;;;;9.43;8.63;;;;;;;;;;5014094;28;20443;-66
2022/08/31 02:21:01;;;;;;;8.60;7.90;;;;;;;;;;5014185;28;20445;-65
2022/08/31 02:23:27;;;;;;;10.03;9.13;;;;;;;;;;5014038;28;20413;-66
2022/08/31 02:25:54;;;;;;;10.10;8.67;;;;;;;;;;5014272;28;20407;-66
2022/08/31 02:28:20;;;;;;;9.30;8.70;;;;;;;;;;5014102;28;20400;-65
2022/08/31 02:30:46;;;;;;;8.73;8.13;;;;;;;;;;5013972;28;20399;-66
2022/08/31 02:33:13;;;;;;;9.47;8.67;;;;;;;;;;5013996;28;20873;-65
2022/08/31 02:35:39;;;;;;;8.90;8.27;;;;;;;;;;5013879;28;20405;-66
2022/08/31 02:38:06;;;;;;;9.27;8.30;;;;;;;;;;5014072;28;20482;-66
2022/08/31 02:40:32;;;;;;;9.17;8.30;;;;;;;;;;5014177;28;20403;-66
2022/08/31 02:42:58;;;;;;;10.20;9.30;;;;;;;;;;5013795;28;20404;-66
2022/08/31 02:45:24;;;;;;;9.60;8.90;;;;;;;;;;5013846;28;20397;-66
2022/08/31 02:47:50;;;;;;;9.43;8.70;;;;;;;;;;5013785;28;20410;-66
2022/08/31 02:50:16;;;;;;;14.30;9.00;;;;;;;;;;5013826;28;20408;-66
2022/08/31 02:52:44;;;;;;;10.20;8.97;;;;;;;;;;5013645;28;20474;-66
2022/08/31 02:55:10;;;;;;;9.40;8.53;;;;;;;;;;5013695;28;20405;-65
2022/08/31 02:57:36;;;;;;;9.70;8.80;;;;;;;;;;5013638;28;20469;-66
2022/08/31 03:00:03;;;;;;;9.47;8.70;;;;;;;;;;5013689;28;20407;-66
2022/08/31 03:02:29;;;;;;;9.50;8.70;;;;;;;;;;5013581;28;20431;-66
2022/08/31 03:04:55;;;;;;;9.43;8.70;;;;;;;;;;5013604;28;20395;-66
2022/08/31 03:07:21;;;;;;;11.73;8.43;;;;;;;;;;5013558;28;20498;-66
2022/08/31 03:09:47;;;;;;;9.30;7.90;;;;;;;;;;5013604;28;20395;-66
2022/08/31 03:12:13;;;;;;;20.37;8.43;;;;;;;;;;5013546;28;20478;-66
2022/08/31 03:14:39;;;;;;;8.90;7.97;;;;;;;;;;5013575;28;20887;-66
2022/08/31 03:17:05;;;;;;;8.53;7.97;;;;;;;;;;5013432;28;20470;-66
2022/08/31 03:19:31;;;;;;;7.37;6.90;;;;;;;;;;5013475;28;20406;-66
2022/08/31 03:21:57;;;;;;;8.00;7.50;;;;;;;;;;5013521;28;20414;-66
2022/08/31 03:24:23;;;;;;;7.30;6.90;;;;;;;;;;5013554;28;20432;-66
2022/08/31 03:26:49;;;;;;;9.80;6.70;;;;;;;;;;5013644;28;20417;-66
2022/08/31 03:29:15;;;;;;;8.17;7.40;;;;;;;;;;5013417;28;20930;-67
2022/08/31 03:31:41;;;;;;;7.80;7.03;;;;;;;;;;5013359;28;20409;-65
2022/08/31 03:34:07;;;;;;;11.57;7.20;;;;;;;;;;5013400;28;20430;-66
2022/08/31 03:36:33;;;;;;;7.30;6.87;;;;;;;;;;5013334;28;20488;-66
2022/08/31 03:38:59;;;;;;;9.00;8.20;;;;;;;;;;5013531;28;20420;-66
2022/08/31 03:41:25;;;;;;;7.40;7.00;;;;;;;;;;5013334;28;20428;-66
2022/08/31 03:43:51;;;;;;;7.27;6.60;;;;;;;;;;5013276;28;20485;-66
2022/08/31 03:46:18;;;;;;;10.83;7.20;;;;;;;;;;5013233;28;20401;-66
2022/08/31 03:48:48;;;;;;;8.67;7.10;;;;;;;;;;5013262;28;20406;-66
2022/08/31 03:51:15;;;;;;;7.50;6.73;;;;;;;;;;5013096;28;20439;-66
2022/08/31 03:53:41;;;;;;;6.47;6.07;;;;;;;;;;5013336;28;20952;-66
2022/08/31 03:56:08;;;;;;;7.17;6.67;;;;;;;;;;5016807;28;20538;-66
2022/08/31 03:58:34;;;;;;;6.57;6.07;;;;;;;;;;5016945;28;20439;-68
2022/08/31 04:01:00;;;;;;;7.27;6.87;;;;;;;;;;5016641;28;20481;-66
2022/08/31 04:03:28;;;;;;;7.10;6.37;;;;;;;;;;5016854;28;20809;-66
2022/08/31 04:05:54;;;;;;;6.50;6.10;;;;;;;;;;5016533;28;20757;-66
2022/08/31 04:08:20;;;;;;;6.77;6.17;;;;;;;;;;5016539;28;20414;-66
2022/08/31 04:10:47;;;;;;;6.17;5.77;;;;;;;;;;5016429;28;20437;-66
2022/08/31 04:13:13;;;;;;;5.83;5.53;;;;;;;;;;5016423;28;20412;-66
2022/08/31 04:15:39;;;;;;;6.27;5.80;;;;;;;;;;5016374;28;20486;-66
2022/08/31 04:18:05;;;;;;;6.40;6.10;;;;;;;;;;5016508;28;20468;-66
2022/08/31 04:20:35;;;;;;;6.87;6.37;;;;;;;;;;5016263;28;20506;-66
2022/08/31 04:23:01;;;;;;;6.13;5.73;;;;;;;;;;5016319;28;20910;-66
2022/08/31 04:25:27;;;;;;;6.33;6.00;;;;;;;;;;5016271;28;20404;-66
2022/08/31 04:27:53;;;;;;;5.70;5.50;;;;;;;;;;5016124;28;20413;-66
2022/08/31 04:30:20;;;;;;;7.43;6.73;;;;;;;;;;5016124;28;20399;-66
2022/08/31 04:32:46;;;;;;;5.90;5.60;;;;;;;;;;5016063;28;20758;-66
2022/08/31 04:35:12;;;;;;;6.20;5.90;;;;;;;;;;5016036;28;20461;-66
2022/08/31 04:37:40;;;;;;;6.80;6.17;;;;;;;;;;5015946;28;20467;-66
2022/08/31 04:40:07;;;;;;;7.33;6.83;;;;;;;;;;5015878;28;20400;-66
2022/08/31 04:42:36;;;;;;;8.03;7.40;;;;;;;;;;5015876;28;20411;-66
2022/08/31 04:45:02;;;;;;;8.10;7.47;;;;;;;;;;5015800;28;20433;-66
2022/08/31 04:47:28;;;;;;;8.80;7.43;;;;;;;;;;5015833;28;20897;-66
2022/08/31 04:49:53;;;;;;;7.47;6.87;;;;;;;;;;5015720;28;20390;-65
2022/08/31 04:52:19;;;;;;;7.23;6.43;;;;;;;;;;5030766;28;20565;-65
2022/08/31 04:54:45;;;;;;;7.43;6.87;;;;;;;;;;5015515;28;20423;-66
2022/08/31 04:57:12;;;;;;;6.90;6.30;;;;;;;;;;5015564;28;20462;-65
2022/08/31 04:59:38;;;;;;;16.23;6.53;;;;;;;;;;5015528;28;20432;-68
2022/08/31 05:02:04;;;;;;;6.80;6.30;;;;;;;;;;5015534;28;20997;-66
2022/08/31 05:04:30;;;;;;;6.13;5.83;;;;;;;;;;5015390;28;20760;-66
2022/08/31 05:06:56;;;;;;;5.27;4.87;;;;;;;;;;5014325;28;20391;-66
2022/08/31 05:09:23;;;;;;;5.40;4.90;;;;;;;;;;5015632;28;20399;-70
2022/08/31 05:11:51;;;;;;;5.30;5.00;;;;;;;;;;5015168;28;20774;-71
2022/08/31 05:14:17;;;;;;;5.27;4.73;;;;;;;;;;5015231;28;20401;-66
2022/08/31 05:16:43;;;;;;;4.70;4.60;;;;;;;;;;5015199;28;20502;-70
2022/08/31 05:19:09;;;;;;;5.23;4.50;;;;;;;;;;5015199;28;20401;-70
2022/08/31 05:21:37;;;;;;;5.83;5.30;;;;;;;;;;5015366;28;20412;-65
2022/08/31 05:24:05;;;;;;;5.10;4.80;;;;;;;;;;5015077;28;20400;-74
2022/08/31 05:26:32;;;;;;;5.23;4.83;;;;;;;;;;5015095;28;20490;-67
2022/08/31 05:28:59;;;;;;;5.60;5.20;;;;;;;;;;5015017;28;20740;-73
2022/08/31 05:31:28;;;;;;;6.33;6.03;;;;;;;;;;5014918;28;20878;-73
2022/08/31 05:33:55;;;;;;;5.27;5.03;;;;;;;;;;5014898;28;20402;-72
2022/08/31 05:36:21;;;;;;;9.60;6.00;;;;;;;;;;5014747;28;20459;-74
2022/08/31 05:38:47;;;;;;;5.27;5.07;;;;;;;;;;5014873;28;20421;-74
2022/08/31 05:41:13;;;;;;;6.83;6.33;;;;;;;;;;5014852;28;20405;-72
2022/08/31 05:43:39;;;;;;;5.53;5.03;;;;;;;;;;5029930;28;20443;-69
2022/08/31 05:46:09;;;;;;;5.40;5.20;;;;;;;;;;5014691;28;20505;-66
2022/08/31 05:48:36;;;;;;;5.77;5.20;;;;;;;;;;5014707;28;20419;-68
2022/08/31 05:51:04;;;;;;;5.53;5.20;;;;;;;;;;5014331;28;20415;-67
2022/08/31 05:53:30;;;;;;;5.50;5.00;;;;;;;;;;5014850;28;20453;-73
2022/08/31 05:56:00;;;;;;;6.03;5.50;;;;;;;;;;5014663;28;20410;-76
2022/08/31 05:58:26;;;;;;;6.07;5.50;;;;;;;;;;5014473;28;20460;-67
2022/08/31 06:00:52;;;;;;;5.50;5.20;;;;;;;;;;5029520;28;20798;-67
2022/08/31 06:03:18;;;;;;;5.63;5.33;;;;;;;;;;5014400;28;20419;-74
2022/08/31 06:05:44;;;;;;;5.90;5.57;;;;;;;;;;5014562;28;20829;-73
2022/08/31 06:08:10;;;;;;;5.37;5.17;;;;;;;;;;5014356;28;20449;-76
2022/08/31 06:10:36;;;;;;;5.67;5.17;;;;;;;;;;5014196;28;20415;-67
2022/08/31 06:13:04;;;;;;;17.13;6.40;;;;;;;;;;5014082;28;20501;-67
2022/08/31 06:15:30;;;;;;;5.40;5.20;;;;;;;;;;5014521;28;20409;-74
2022/08/31 06:17:56;;;;;;;6.40;5.50;;;;;;;;;;5013871;28;20458;-67
2022/08/31 06:20:22;;;;;;;8.17;5.40;;;;;;;;;;5014331;28;20423;-67
2022/08/31 06:22:48;;;;;;;6.40;5.70;;;;;;;;;;5014384;28;20465;-74
2022/08/31 06:25:18;;;;;;;5.50;5.00;;;;;;;;;;5014344;28;20528;-71
2022/08/31 06:27:49;;;;;;;4.90;4.20;;;;;;;;;;5014063;28;20398;-74
2022/08/31 06:30:18;;;;;;;5.10;4.90;;;;;;;;;;5013989;28;20394;-75
2022/08/31 06:32:44;;;;;;;4.97;4.77;;;;;;;;;;5014185;28;20417;-71
2022/08/31 06:35:10;;;;;;;15.50;4.70;;;;;;;;;;5014219;28;20452;-72
2022/08/31 06:37:36;;;;;;;5.53;5.17;;;;;;;;;;5013814;28;20961;-69
2022/08/31 06:40:02;;;;;;;6.90;6.30;;;;;;;;;;5013906;28;20409;-76
2022/08/31 06:42:28;;;;;;;6.03;5.43;;;;;;;;;;5013836;28;20394;-75
2022/08/31 06:44:54;;;;;;;6.53;5.93;;;;;;;;;;5013903;28;20412;-65
2022/08/31 06:47:20;;;;;;;6.40;5.80;;;;;;;;;;5013847;28;20921;-69
2022/08/31 06:49:46;;;;;;;6.40;5.90;;;;;;;;;;5013763;28;20411;-73
2022/08/31 06:52:13;;;;;;;7.20;5.77;;;;;;;;;;5013703;28;20474;-76
2022/08/31 06:54:39;;;;;;;6.20;5.80;;;;;;;;;;5013688;28;20465;-70
2022/08/31 06:57:05;;;;;;;5.97;5.77;;;;;;;;;;5013573;28;20498;-65
2022/08/31 06:59:32;;;;;;;6.83;6.40;;;;;;;;;;5013643;28;20439;-69
2022/08/31 07:01:58;;;;;;;9.00;6.60;;;;;;;;;;5013731;28;20399;-72
2022/08/31 07:04:25;;;;;;;5.53;5.30;;;;;;;;;;5013623;28;20442;-70
2022/08/31 07:06:51;;;;;;;6.67;6.07;;;;;;;;;;5013667;28;20391;-72
2022/08/31 07:09:17;;;;;;;7.53;6.90;;;;;;;;;;5013643;28;20410;-72
2022/08/31 07:11:44;;;;;;;7.93;7.20;;;;;;;;;;5013627;28;20407;-69
2022/08/31 07:14:11;;;;;;;8.83;6.73;;;;;;;;;;5013584;28;20404;-72
2022/08/31 07:16:38;;;;;;;6.73;6.10;;;;;;;;;;5013527;28;20825;-73
2022/08/31 07:19:05;;;;;;;8.13;7.00;;;;;;;;;;5013499;28;20432;-70
2022/08/31 07:21:42;;;;;;;10.50;6.90;;;;;;;;;;5013450;28;20923;-73
2022/08/31 07:24:09;;;;;;;12.57;6.90;;;;;;;;;;5013352;28;20396;-74
2022/08/31 07:26:45;;;;;;;12.60;8.13;;;;;;;;;;5013653;28;20440;-71
2022/08/31 07:29:13;;;;;;;8.13;7.30;;;;;;;;;;5014109;28;20441;-68
2022/08/31 07:31:46;;;;;;;10.27;8.00;;;;;;;;;;5017188;28;20880;-75
2022/08/31 07:34:32;;;;;;;9.27;8.40;;;;;;;;;;5017191;28;20404;-75
2022/08/31 07:42:33;;;;;;;7.20;6.73;;;;;;;;;;5017327;28;20397;-75
2022/08/31 07:45:00;;;;;;;7.47;6.77;;;;;;;;;;5016884;28;20396;-70
2022/08/31 07:47:27;;;;;;;15.93;6.57;;;;;;;;;;5016906;28;20397;-66
2022/08/31 07:49:54;;;;;;;8.53;7.83;;;;;;;;;;5016873;28;20762;-74
2022/08/31 07:52:29;;;;;;;7.30;6.90;;;;;;;;;;5016625;28;20524;-75
2022/08/31 07:54:57;;;;;;;8.33;7.53;;;;;;;;;;5016702;28;20447;-65
2022/08/31 07:57:30;;;;;;;8.07;7.30;;;;;;;;;;5016656;28;20500;-64
2022/08/31 08:00:03;;;;;;;8.50;7.60;;;;;;;;;;5016865;28;20408;-72
2022/08/31 08:02:29;;;;;;;10.40;7.70;;;;;;;;;;5016604;28;20387;-64
2022/08/31 08:04:57;;;;;;;9.33;7.80;;;;;;;;;;5016540;28;20768;-66
2022/08/31 08:07:23;;;;;;;8.83;7.60;;;;;;;;;;5016482;28;20811;-72
2022/08/31 08:09:54;;;;;;;11.10;7.50;;;;;;;;;;5016569;28;20438;-73
2022/08/31 08:12:21;;;;;;;8.23;7.60;;;;;;;;;;5016474;28;20403;-72
2022/08/31 08:14:47;;;;;;;8.23;7.63;;;;;;;;;;5016432;28;20405;-72
2022/08/31 08:17:13;;;;;;;8.13;7.50;;;;;;;;;;5016299;28;20533;-74
2022/08/31 08:19:39;;;;;;;9.63;7.37;;;;;;;;;;5016540;28;20402;-64
2022/08/31 08:22:05;;;;;;;7.10;6.80;;;;;;;;;;5016240;28;20894;-67
2022/08/31 08:24:31;;;;;;;8.80;7.97;;;;;;;;;;5016200;28;20764;-66
2022/08/31 08:26:57;;;;;;;11.93;7.23;;;;;;;;;;5016341;28;20444;-72
2022/08/31 08:29:24;;;;;;;8.40;7.80;;;;;;;;;;5016191;28;20831;-66
2022/08/31 08:31:52;;;;;;;7.87;7.07;;;;;;;;;;5016101;28;20426;-71
2022/08/31 08:34:19;;;;;;;8.83;6.97;;;;;;;;;;5016018;28;20389;-71
2022/08/31 08:36:45;;;;;;;6.77;6.20;;;;;;;;;;5015992;28;20458;-72
2022/08/31 08:39:12;;;;;;;6.87;6.27;;;;;;;;;;5015936;28;20441;-67
2022/08/31 08:41:39;;;;;;;7.70;7.03;;;;;;;;;;5015708;28;20399;-66
2022/08/31 08:44:08;;;;;;;8.00;7.37;;;;;;;;;;5015801;28;20440;-71
2022/08/31 08:46:47;;;;;;;6.57;6.03;;;;;;;;;;5015755;28;20394;-67
2022/08/31 08:49:18;;;;;;;6.93;6.40;;;;;;;;;;5015999;28;20431;-72
2022/08/31 08:51:45;;;;;;;5.37;5.00;;;;;;;;;;5015677;28;20890;-67
2022/08/31 08:54:12;;;;;;;4.40;4.20;;;;;;;;;;5015592;28;20405;-66
2022/08/31 08:56:46;;;;;;;7.00;4.63;;;;;;;;;;5015384;28;20463;-69
2022/08/31 08:59:13;;;;;;;5.70;5.43;;;;;;;;;;5015486;28;20415;-70
2022/08/31 09:01:39;;;;;;;4.60;4.40;;;;;;;;;;5015442;28;20389;-71
2022/08/31 09:04:31;;;;;;;3.90;3.80;;;;;;;;;;5015368;28;20498;-68
2022/08/31 09:07:10;;;;;;;3.73;3.63;;;;;;;;;;5015822;28;20506;-69
2022/08/31 09:09:36;;;;;;;4.00;3.90;;;;;;;;;;5015396;28;20416;-69
2022/08/31 09:12:21;;;;;;;5.73;4.00;;;;;;;;;;5015274;28;20406;-67
2022/08/31 09:15:00;;;;;;;4.13;4.03;;;;;;;;;;5015274;28;20831;-69
2022/08/31 09:17:27;;;;;;;4.40;4.00;;;;;;;;;;5015117;28;20461;-71
2022/08/31 09:20:04;;;;;;;4.10;3.90;;;;;;;;;;5015195;28;20869;-73
2022/08/31 09:22:32;;;;;;;3.60;3.50;;;;;;;;;;5015094;28;20390;-69
2022/08/31 09:24:58;;;;;;;4.20;4.10;;;;;;;;;;5015324;28;20868;-70
2022/08/31 09:27:44;;;;;;;3.27;3.10;;;;;;;;;;5015031;28;20915;-73
2022/08/31 09:30:10;;;;;;;3.30;3.20;;;;;;;;;;5015023;28;20918;-69
2022/08/31 09:32:36;;;;;;;3.50;3.40;;;;;;;;;;5014974;28;20416;-67
2022/08/31 09:35:16;;;;;;;3.17;2.97;;;;;;;;;;5015028;28;20400;-71
2022/08/31 09:37:45;;;;;;;3.40;3.10;;;;;;;;;;5014716;28;20474;-73
2022/08/31 09:40:15;;;;;;;3.03;2.93;;;;;;;;;;5014748;28;20404;-70
2022/08/31 09:42:42;;;;;;;3.13;3.03;;;;;;;;;;5014787;28;20908;-71
2022/08/31 09:45:11;;;;;;;4.83;3.20;;;;;;;;;;5014695;28;20493;-71
2022/08/31 09:47:51;;;;;;;3.60;3.50;;;;;;;;;;5014580;28;20401;-72
2022/08/31 09:50:43;;;;;;;3.47;3.37;;;;;;;;;;5014807;28;20464;-67
2022/08/31 09:56:12;;;;;;;3.80;3.37;;;;;;;;;;5014786;28;20414;-67
2022/08/31 09:58:39;;;;;;;3.40;3.30;;;;;;;;;;5014429;28;20427;-69
2022/08/31 10:01:12;;;;;;;3.80;3.70;;;;;;;;;;5014339;28;20816;-67
2022/08/31 10:03:43;;;;;;;4.33;4.07;;;;;;;;;;5014414;28;20427;-66
2022/08/31 10:06:23;;;;;;;4.10;4.00;;;;;;;;;;5014318;28;20393;-73
2022/08/31 10:08:56;;;;;;;3.93;3.80;;;;;;;;;;5014307;28;20952;-66
2022/08/31 10:11:25;;;;;;;3.93;3.67;;;;;;;;;;5029441;28;20869;-66
2022/08/31 10:13:53;;;;;;;3.90;3.60;;;;;;;;;;5014289;28;20414;-65
2022/08/31 10:16:37;;;;;;;3.60;3.50;;;;;;;;;;5014099;28;20405;-67
2022/08/31 10:19:06;;;;;;;3.60;3.40;;;;;;;;;;5014235;28;20401;-69
2022/08/31 10:21:50;;;;;;;3.27;3.17;;;;;;;;;;5014394;28;20782;-73
2022/08/31 10:24:27;;;;;;;3.50;3.40;;;;;;;;;;5014105;28;20538;-71
2022/08/31 10:27:03;;;;;;;3.07;2.97;;;;;;;;;;5014307;28;20485;-67
2022/08/31 10:29:51;;;;;;;3.30;3.10;;;;;;;;;;5014014;28;20390;-65
2022/08/31 10:32:38;;;;;;;3.60;3.27;;;;;;;;;;5014049;28;20408;-74
2022/08/31 10:35:10;;;;;;;12.60;3.37;;;;;;;;;;5016641;28;20427;-74
2022/08/31 10:37:55;;;;;;;4.60;3.23;;;;;;;;;;5013811;28;20465;-65
2022/08/31 10:40:32;;;;;;;5.17;3.67;;;;;;;;;;5013914;28;20397;-74
2022/08/31 10:43:12;;;;;;;3.77;3.57;;;;;;;;;;5013842;28;20490;-65
2022/08/31 10:45:43;;;;;;;3.37;3.20;;;;;;;;;;5013919;28;20387;-74
2022/08/31 10:48:11;;;;;;;3.43;3.20;;;;;;;;;;5014099;28;20516;-73
2022/08/31 10:50:56;;;;;;;6.97;3.57;;;;;;;;;;5013827;28;20397;-72
2022/08/31 10:53:40;;;;;;;3.43;3.20;;;;;;;;;;5013582;28;20507;-65
2022/08/31 10:56:14;;;;;;;3.40;3.10;;;;;;;;;;5013887;28;20397;-74
2022/08/31 10:58:45;;;;;;;3.10;2.90;;;;;;;;;;5013899;28;20420;-74
2022/08/31 11:01:34;;;;;;;3.20;2.97;;;;;;;;;;5013691;28;20398;-64
2022/08/31 11:04:07;;;;;;;3.57;3.13;;;;;;;;;;5014017;28;20492;-64
2022/08/31 11:06:33;;;;;;;2.90;2.80;;;;;;;;;;5017734;28;20462;-64
2022/08/31 11:09:00;;;;;;;3.43;3.30;;;;;;;;;;5017684;28;20820;-66
2022/08/31 11:11:44;;;;;;;2.83;2.80;;;;;;;;;;5017511;28;20940;-64
2022/08/31 11:14:13;;;;;;;3.70;3.53;;;;;;;;;;5017524;28;20398;-65
2022/08/31 11:16:48;;;;;;;3.37;3.27;;;;;;;;;;5017461;28;20475;-64
2022/08/31 11:19:28;;;;;;;4.10;3.73;;;;;;;;;;5017474;28;20417;-66
2022/08/31 11:21:54;;;;;;;2.90;2.80;;;;;;;;;;5017349;28;20442;-66
2022/08/31 11:24:45;;;;;;;3.23;3.13;;;;;;;;;;5017320;28;20407;-66
2022/08/31 11:27:22;;;;;;;3.27;3.17;;;;;;;;;;5017257;28;20743;-66
2022/08/31 11:30:01;;;;;;;3.30;3.20;;;;;;;;;;5017209;28;20412;-65
2022/08/31 11:32:33;;;;;;;3.53;3.33;;;;;;;;;;5017211;28;20396;-66
2022/08/31 11:35:07;;;;;;;3.30;3.13;;;;;;;;;;5017102;28;20384;-66
2022/08/31 11:37:51;;;;;;;3.40;3.30;;;;;;;;;;5017012;28;20467;-64
2022/08/31 11:40:42;;;;;;;3.37;3.17;;;;;;;;;;5017340;28;20397;-64
2022/08/31 11:43:14;;;;;;;3.63;3.33;;;;;;;;;;5016988;28;20442;-63
2022/08/31 11:45:40;;;;;;;3.97;3.67;;;;;;;;;;5017200;28;20395;-67
2022/08/31 11:48:09;;;;;;;3.80;3.60;;;;;;;;;;5016947;28;20495;-68
2022/08/31 11:50:54;;;;;;;3.40;3.10;;;;;;;;;;5016915;28;20420;-65
2022/08/31 11:53:19;;;;;;;3.63;3.50;;;;;;;;;;5016700;28;21017;-64
2022/08/31 11:55:48;;;;;;;3.50;3.40;;;;;;;;;;5016835;28;20495;-66
2022/08/31 11:58:21;;;;;;;3.80;3.60;;;;;;;;;;5016661;28;20502;-66
2022/08/31 12:00:58;;;;;;;4.07;3.67;;;;;;;;;;5016678;28;20400;-65
2022/08/31 12:03:51;;;;;;;3.73;3.63;;;;;;;;;;5016912;28;20780;-65
2022/08/31 12:06:26;;;;;;;3.57;3.47;;;;;;;;;;5017007;28;20428;-65
2022/08/31 12:09:10;;;;;;;3.50;3.40;;;;;;;;;;5016443;28;20393;-66
2022/08/31 12:11:39;;;;;;;3.83;3.70;;;;;;;;;;5016470;28;20837;-67
2022/08/31 12:14:20;;;;;;;3.90;3.80;;;;;;;;;;5016412;28;20436;-67
2022/08/31 12:16:49;;;;;;;3.60;3.40;;;;;;;;;;5015808;28;20481;-66
2022/08/31 12:25:13;;;;;;;3.83;3.70;;;;;;;;;;5016618;28;20388;-67
2022/08/31 12:27:43;;;;;;;3.73;3.47;;;;;;;;;;5016137;28;20506;-66
2022/08/31 12:30:16;;;;;;;3.67;3.57;;;;;;;;;;5016094;28;20395;-67
2022/08/31 12:32:44;;;;;;;3.80;3.60;;;;;;;;;;5016116;28;20414;-66
2022/08/31 12:35:21;;;;;;;3.67;3.57;;;;;;;;;;5016341;28;20413;-66
2022/08/31 12:37:57;;;;;;;3.20;3.10;;;;;;;;;;5016214;28;20503;-66
2022/08/31 12:40:23;;;;;;;4.27;3.97;;;;;;;;;;5015967;28;20401;-67
2022/08/31 12:42:58;;;;;;;3.93;3.73;;;;;;;;;;5015876;28;20401;-65
2022/08/31 12:45:30;;;;;;;4.53;4.33;;;;;;;;;;5015874;28;20409;-66
2022/08/31 12:48:05;;;;;;;4.30;3.90;;;;;;;;;;5016038;28;20759;-66
2022/08/31 12:50:40;;;;;;;4.47;4.30;;;;;;;;;;5015839;28;20406;-67
2022/08/31 12:53:12;;;;;;;4.30;4.10;;;;;;;;;;5015508;28;20461;-66
2022/08/31 12:55:38;;;;;;;5.37;4.73;;;;;;;;;;5015705;28;20755;-66
2022/08/31 12:58:19;;;;;;;4.47;4.27;;;;;;;;;;5015539;28;20461;-66
2022/08/31 13:00:45;;;;;;;4.23;4.13;;;;;;;;;;5015584;28;20396;-67
2022/08/31 13:03:17;;;;;;;4.23;4.03;;;;;;;;;;5015433;28;20406;-65
2022/08/31 13:05:58;;;;;;;4.90;4.50;;;;;;;;;;5015475;28;20409;-65
2022/08/31 13:08:24;;;;;;;4.90;4.50;;;;;;;;;;5015439;28;20477;-65
2022/08/31 13:10:51;;;;;;;4.33;3.70;;;;;;;;;;5015381;28;20403;-66
2022/08/31 13:13:25;;;;;;;4.33;4.03;;;;;;;;;;5015342;28;20811;-66
2022/08/31 13:15:51;;;;;;;6.50;4.33;;;;;;;;;;5015290;28;20406;-66
2022/08/31 13:18:22;;;;;;;4.50;4.10;;;;;;;;;;5015160;28;20466;-66
2022/08/31 13:20:52;;;;;;;4.70;4.50;;;;;;;;;;5015119;28;20761;-66
2022/08/31 13:23:26;;;;;;;3.90;3.80;;;;;;;;;;5015155;28;20446;-66
2022/08/31 13:26:03;;;;;;;4.83;4.43;;;;;;;;;;5015195;28;20401;-66
2022/08/31 13:28:29;;;;;;;4.37;4.07;;;;;;;;;;5014258;28;20460;-67
2022/08/31 13:31:00;;;;;;;4.23;4.10;;;;;;;;;;5015265;28;20424;-67
2022/08/31 13:33:30;;;;;;;4.13;3.90;;;;;;;;;;5014980;28;20915;-66
2022/08/31 13:36:08;;;;;;;4.10;4.00;;;;;;;;;;5015137;28;20553;-67
2022/08/31 13:38:39;;;;;;;4.00;3.80;;;;;;;;;;5014742;28;20468;-66
2022/08/31 13:41:07;;;;;;;3.80;3.50;;;;;;;;;;5014796;28;20405;-67
2022/08/31 13:43:33;;;;;;;4.00;3.80;;;;;;;;;;5014756;28;20404;-67
2022/08/31 13:46:00;;;;;;;4.57;4.00;;;;;;;;;;5014742;28;20400;-68
2022/08/31 13:48:34;;;;;;;3.67;3.37;;;;;;;;;;5014977;28;20452;-66
2022/08/31 13:51:05;;;;;;;4.03;3.83;;;;;;;;;;5014392;28;20955;-66
2022/08/31 13:53:38;;;;;;;3.40;3.40;;;;;;;;;;5014615;28;20411;-67
2022/08/31 13:59:22;;;;;;;3.60;3.40;;;;;;;;;;5014492;28;20426;-66
2022/08/31 14:01:50;;;;;;;4.03;3.70;;;;;;;;;;5014496;28;20397;-68
2022/08/31 14:04:59;;;;;;;3.03;3.03;;;;;;;;;;5013682;28;20441;-66
2022/08/31 14:07:26;;;;;;;4.33;4.23;;;;;;;;;;5021610;28;20471;-66
2022/08/31 14:10:01;;;;;;;3.43;3.33;;;;;;;;;;5013461;28;20406;-66
2022/08/31 14:12:50;;;;;;;3.50;3.40;;;;;;;;;;5013322;28;20412;-67
2022/08/31 14:15:18;;;;;;;4.90;4.60;;;;;;;;;;5013321;28;20862;-68
2022/08/31 14:17:46;;;;;;;3.83;3.43;;;;;;;;;;5028431;28;21080;-67
2022/08/31 14:20:32;;;;;;;3.20;3.10;;;;;;;;;;5013286;28;20412;-67
2022/08/31 14:23:17;;;;;;;3.97;3.67;;;;;;;;;;5013135;28;20409;-67
2022/08/31 14:25:42;;;;;;;3.90;3.80;;;;;;;;;;5013194;28;20407;-67
2022/08/31 14:28:09;;;;;;;3.67;3.57;;;;;;;;;;5013176;28;20408;-67
2022/08/31 14:30:35;;;;;;;3.70;3.60;;;;;;;;;;5013122;28;20432;-68
2022/08/31 14:33:01;;;;;;;3.77;3.53;;;;;;;;;;5013101;28;20405;-68
2022/08/31 14:35:27;;;;;;;3.53;3.43;;;;;;;;;;5013168;28;20405;-68
2022/08/31 14:37:53;;;;;;;7.13;3.90;;;;;;;;;;5012961;28;20518;-68
2022/08/31 14:40:19;;;;;;;4.00;3.70;;;;;;;;;;5013039;28;20410;-70
2022/08/31 14:42:46;;;;;;;4.50;4.20;;;;;;;;;;5012921;28;20460;-68
2022/08/31 14:45:17;;;;;;;3.70;3.50;;;;;;;;;;5013056;28;20401;-67
2022/08/31 14:47:45;;;;;;;2.70;2.70;;;;;;;;;;5013044;28;20438;-68
2022/08/31 14:50:12;;;;;;;3.67;3.57;;;;;;;;;;5013344;28;20400;-70
2022/08/31 14:52:40;;;;;;;3.93;3.83;;;;;;;;;;5013611;28;20471;-68
2022/08/31 14:55:09;;;;;;;3.57;3.47;;;;;;;;;;5013801;28;20411;-72
2022/08/31 14:57:36;;;;;;;3.50;3.37;;;;;;;;;;5013755;28;20490;-68
2022/08/31 15:00:04;;;;;;;4.23;3.67;;;;;;;;;;5013682;28;20411;-68
2022/08/31 15:02:32;;;;;;;3.70;3.60;;;;;;;;;;5013691;28;20401;-69
2022/08/31 15:05:01;;;;;;;3.93;3.40;;;;;;;;;;5013651;28;20402;-68
2022/08/31 15:07:29;;;;;;;3.50;3.40;;;;;;;;;;5013650;28;20796;-70
2022/08/31 15:09:56;;;;;;;3.83;3.53;;;;;;;;;;5013881;28;20409;-68
2022/08/31 15:12:22;;;;;;;3.90;3.80;;;;;;;;;;5013548;28;20774;-69
2022/08/31 15:14:48;;;;;;;3.57;3.37;;;;;;;;;;5013543;28;20406;-67
2022/08/31 15:17:15;;;;;;;3.37;3.27;;;;;;;;;;5013531;28;20598;-68